createdAt,value
2022-10-28T00:01:20.920Z,10.24
2022-10-28T00:03:49.762Z,10.36
2022-10-28T00:06:19.365Z,10.37
2022-10-28T00:08:46.146Z,10.44
2022-10-28T00:11:27.082Z,10.44
2022-10-28T00:13:55.054Z,10.44
2022-10-28T00:16:28.206Z,10.41
2022-10-28T00:18:55.295Z,10.34
2022-10-28T00:21:24.236Z,10.35
2022-10-28T00:23:51.024Z,10.33
2022-10-28T00:26:20.343Z,10.30
2022-10-28T00:28:51.904Z,10.37
2022-10-28T00:31:20.409Z,10.34
2022-10-28T00:33:47.249Z,10.37
2022-10-28T00:36:20.537Z,10.41
2022-10-28T00:38:48.547Z,10.39
2022-10-28T00:41:21.991Z,10.26
2022-10-28T00:43:52.152Z,10.17
2022-10-28T00:46:42.336Z,10.25
2022-10-28T00:49:18.663Z,10.27
2022-10-28T00:51:48.115Z,10.24
2022-10-28T00:54:16.491Z,10.28
2022-10-28T00:56:51.507Z,10.28
2022-10-28T00:59:26.699Z,10.26
2022-10-28T01:01:53.654Z,10.20
2022-10-28T01:04:21.253Z,10.15
2022-10-28T01:06:48.045Z,10.18
2022-10-28T01:09:14.731Z,10.15
2022-10-28T01:11:59.798Z,10.16
2022-10-28T01:14:47.243Z,10.14
2022-10-28T01:17:38.896Z,10.10
2022-10-28T01:20:27.194Z,10.16
2022-10-28T01:23:14.810Z,10.10
2022-10-28T01:26:00.487Z,10.02
2022-10-28T01:28:41.021Z,10.01
2022-10-28T01:31:35.399Z,10.04
2022-10-28T01:34:15.967Z,10.02
2022-10-28T01:37:07.796Z,9.99
2022-10-28T01:39:45.058Z,9.95
2022-10-28T01:42:32.336Z,9.92
2022-10-28T01:45:15.809Z,9.84
2022-10-28T01:47:53.271Z,9.79
2022-10-28T01:50:26.980Z,9.71
2022-10-28T01:52:57.782Z,9.74
2022-10-28T01:55:29.021Z,9.78
2022-10-28T01:57:58.800Z,9.82
2022-10-28T02:00:26.375Z,9.78
2022-10-28T02:02:53.209Z,9.77
2022-10-28T02:05:47.399Z,9.70
2022-10-28T02:08:22.928Z,9.72
2022-10-28T02:11:21.449Z,9.77
2022-10-28T02:14:06.337Z,9.77
2022-10-28T02:16:48.547Z,9.74
2022-10-28T02:19:39.223Z,9.84
2022-10-28T02:22:52.883Z,9.82
2022-10-28T02:25:43.135Z,9.83
2022-10-28T02:28:14.200Z,9.84
2022-10-28T02:30:47.519Z,9.76
2022-10-28T02:33:19.460Z,9.79
2022-10-28T02:35:57.246Z,9.76
2022-10-28T02:38:27.355Z,9.76
2022-10-28T02:40:59.672Z,9.74
2022-10-28T02:43:28.048Z,9.73
2022-10-28T02:45:59.652Z,9.70
2022-10-28T02:48:33.539Z,9.70
2022-10-28T02:51:09.411Z,9.68
2022-10-28T02:53:47.654Z,9.70
2022-10-28T02:56:17.259Z,9.69
2022-10-28T02:58:45.172Z,9.70
2022-10-28T03:01:11.575Z,9.70
2022-10-28T03:03:38.051Z,9.76
2022-10-28T03:06:04.454Z,9.77
2022-10-28T03:08:30.815Z,9.69
2022-10-28T03:10:57.136Z,9.67
2022-10-28T03:13:23.903Z,9.72
2022-10-28T03:15:50.237Z,9.77
2022-10-28T03:18:16.591Z,9.71
2022-10-28T03:20:42.902Z,9.71
2022-10-28T03:23:09.255Z,9.70
2022-10-28T03:25:35.601Z,9.68
2022-10-28T03:28:01.898Z,9.68
2022-10-28T03:30:28.198Z,9.71
2022-10-28T03:32:55.037Z,9.64
2022-10-28T03:35:21.596Z,9.65
2022-10-28T03:37:47.880Z,9.65
2022-10-28T03:40:14.259Z,9.73
2022-10-28T03:42:41.790Z,9.68
2022-10-28T03:45:09.207Z,9.68
2022-10-28T03:47:36.088Z,9.63
2022-10-28T03:50:02.785Z,9.62
2022-10-28T03:52:29.161Z,9.57
2022-10-28T03:54:55.443Z,9.53
2022-10-28T03:57:21.715Z,9.50
2022-10-28T03:59:48.018Z,9.52
2022-10-28T04:02:15.579Z,9.46
2022-10-28T04:04:42.111Z,9.46
2022-10-28T04:07:08.439Z,9.52
2022-10-28T04:09:34.711Z,9.55
2022-10-28T04:12:01.098Z,9.36
2022-10-28T04:14:27.463Z,9.34
2022-10-28T04:16:53.779Z,9.37
2022-10-28T04:19:20.104Z,9.33
2022-10-28T04:21:46.442Z,9.32
2022-10-28T04:24:12.736Z,9.12
2022-10-28T04:26:39.074Z,9.17
2022-10-28T04:29:05.448Z,9.19
2022-10-28T04:31:31.743Z,9.20
2022-10-28T04:33:58.047Z,9.22
2022-10-28T04:36:24.474Z,9.16
2022-10-28T04:38:51.868Z,9.07
2022-10-28T04:41:18.433Z,9.13
2022-10-28T04:43:44.811Z,9.03
2022-10-28T04:46:11.108Z,9.01
2022-10-28T04:48:37.484Z,9.08
2022-10-28T04:51:04.389Z,9.09
2022-10-28T04:53:33.493Z,9.10
2022-10-28T04:55:59.867Z,9.01
2022-10-28T04:58:26.684Z,8.99
2022-10-28T05:00:52.990Z,9.02
2022-10-28T05:03:19.280Z,8.95
2022-10-28T05:05:45.651Z,8.95
2022-10-28T05:08:12.076Z,8.92
2022-10-28T05:10:38.444Z,8.84
2022-10-28T05:13:04.771Z,8.80
2022-10-28T05:15:31.292Z,8.85
2022-10-28T05:17:57.571Z,8.84
2022-10-28T05:20:24.217Z,8.80
2022-10-28T05:22:53.712Z,8.77
2022-10-28T05:25:21.243Z,8.73
2022-10-28T05:27:47.585Z,8.78
2022-10-28T05:30:14.146Z,8.83
2022-10-28T05:32:40.713Z,8.87
2022-10-28T05:35:07.636Z,8.89
2022-10-28T05:37:37.399Z,8.94
2022-10-28T05:40:04.275Z,9.00
2022-10-28T05:42:30.546Z,8.86
2022-10-28T05:44:56.844Z,8.82
2022-10-28T05:47:23.770Z,8.90
2022-10-28T05:49:51.301Z,8.93
2022-10-28T05:52:17.578Z,8.92
2022-10-28T05:54:43.858Z,9.01
2022-10-28T05:57:10.201Z,8.93
2022-10-28T05:59:36.484Z,8.86
2022-10-28T06:02:03.243Z,8.89
2022-10-28T06:04:30.925Z,8.94
2022-10-28T06:06:57.276Z,8.94
2022-10-28T06:09:23.638Z,8.86
2022-10-28T06:11:48.423Z,9.01
2022-10-28T06:14:14.711Z,9.03
2022-10-28T06:16:42.229Z,9.12
2022-10-28T06:19:08.500Z,9.11
2022-10-28T06:21:34.840Z,9.08
2022-10-28T06:24:01.139Z,9.03
2022-10-28T06:26:27.456Z,9.23
2022-10-28T06:28:53.741Z,9.34
2022-10-28T06:31:20.019Z,9.40
2022-10-28T06:33:46.379Z,9.42
2022-10-28T06:36:12.705Z,9.49
2022-10-28T06:38:39.001Z,9.62
2022-10-28T06:41:05.305Z,9.75
2022-10-28T06:43:31.590Z,9.81
2022-10-28T06:46:03.551Z,9.80
2022-10-28T06:48:32.765Z,9.85
2022-10-28T06:50:59.115Z,10.03
2022-10-28T06:53:26.130Z,9.94
2022-10-28T06:55:56.781Z,10.05
2022-10-28T06:58:24.051Z,10.10
2022-10-28T07:00:50.542Z,10.04
2022-10-28T07:03:18.726Z,10.16
2022-10-28T07:05:46.813Z,10.28
2022-10-28T07:08:14.354Z,10.24
2022-10-28T07:10:41.826Z,10.27
2022-10-28T07:13:08.174Z,10.21
2022-10-28T07:15:34.466Z,10.20
2022-10-28T07:18:01.780Z,10.19
2022-10-28T07:20:29.273Z,10.15
2022-10-28T07:23:00.853Z,9.92
2022-10-28T07:25:29.425Z,10.16
2022-10-28T07:27:59.765Z,10.05
2022-10-28T07:30:26.897Z,10.23
2022-10-28T07:32:53.857Z,10.40
2022-10-28T07:35:20.817Z,10.69
2022-10-28T07:37:47.189Z,10.64
2022-10-28T07:40:14.055Z,11.03
2022-10-28T07:42:40.485Z,11.12
2022-10-28T07:45:07.089Z,11.35
2022-10-28T07:47:33.410Z,11.34
2022-10-28T07:49:59.777Z,11.57
2022-10-28T07:52:26.120Z,11.75
2022-10-28T07:54:52.461Z,11.69
2022-10-28T07:57:19.274Z,11.79
2022-10-28T07:59:45.661Z,11.87
2022-10-28T08:02:21.077Z,12.02
2022-10-28T08:04:47.470Z,12.10
2022-10-28T08:07:15.038Z,12.28
2022-10-28T08:09:41.544Z,12.27
2022-10-28T08:12:08.828Z,12.35
2022-10-28T08:14:35.453Z,12.42
2022-10-28T08:17:02.036Z,12.43
2022-10-28T08:19:28.356Z,12.49
2022-10-28T08:21:54.658Z,12.44
2022-10-28T08:24:20.961Z,12.48
2022-10-28T08:26:47.266Z,12.35
2022-10-28T08:29:13.624Z,12.49
2022-10-28T08:31:40.150Z,12.58
2022-10-28T08:34:08.460Z,12.40
2022-10-28T08:36:35.252Z,12.49
2022-10-28T08:39:12.058Z,12.46
2022-10-28T08:41:44.182Z,12.47
2022-10-28T08:44:42.634Z,12.81
2022-10-28T08:47:43.396Z,13.08
2022-10-28T08:50:15.917Z,13.30
2022-10-28T08:52:57.768Z,13.35
2022-10-28T08:55:52.561Z,13.44
2022-10-28T08:58:25.213Z,13.63
2022-10-28T09:00:54.948Z,13.58
2022-10-28T09:03:27.319Z,13.57
2022-10-28T09:06:03.299Z,14.01
2022-10-28T09:08:33.610Z,14.06
2022-10-28T09:11:08.722Z,14.11
2022-10-28T09:13:54.348Z,14.35
2022-10-28T09:16:29.832Z,14.36
2022-10-28T09:18:58.037Z,14.14
2022-10-28T09:21:35.164Z,14.61
2022-10-28T09:24:15.127Z,14.54
2022-10-28T09:26:48.976Z,14.90
2022-10-28T09:29:43.241Z,14.87
2022-10-28T09:32:16.702Z,15.26
2022-10-28T09:34:51.929Z,15.26
2022-10-28T09:37:27.938Z,15.56
2022-10-28T09:39:59.320Z,15.52
2022-10-28T09:42:35.078Z,15.46
2022-10-28T09:45:12.471Z,15.57
2022-10-28T09:47:45.801Z,15.68
2022-10-28T09:50:22.559Z,15.90
2022-10-28T09:53:12.659Z,16.00
2022-10-28T09:55:39.054Z,16.21
2022-10-28T09:58:05.557Z,16.22
2022-10-28T10:00:32.451Z,16.29
2022-10-28T10:02:59.374Z,16.35
2022-10-28T10:05:26.491Z,16.61
2022-10-28T10:08:06.482Z,16.57
2022-10-28T10:10:48.110Z,17.46
2022-10-28T10:13:17.389Z,17.76
2022-10-28T10:15:47.209Z,18.12
2022-10-28T10:18:18.823Z,18.46
2022-10-28T10:20:55.776Z,18.15
2022-10-28T10:23:42.548Z,18.61
2022-10-28T10:26:12.599Z,19.70
2022-10-28T10:28:50.413Z,20.27
2022-10-28T10:31:22.705Z,20.42
2022-10-28T10:33:51.940Z,19.95
2022-10-28T10:36:28.110Z,19.06
2022-10-28T10:38:59.778Z,19.45
2022-10-28T10:41:43.377Z,19.29
2022-10-28T10:44:21.761Z,19.45
2022-10-28T10:47:08.365Z,19.46
2022-10-28T10:49:35.645Z,19.42
2022-10-28T10:52:04.259Z,19.92
2022-10-28T10:54:32.617Z,19.72
2022-10-28T10:57:10.303Z,20.08
2022-10-28T10:59:37.745Z,19.58
2022-10-28T11:02:18.203Z,19.82
2022-10-28T11:04:51.265Z,20.30
2022-10-28T11:07:17.704Z,20.83
2022-10-28T11:09:48.457Z,20.59
2022-10-28T11:12:36.094Z,20.13
2022-10-28T11:15:04.057Z,20.32
2022-10-28T11:17:34.302Z,20.87
2022-10-28T11:20:22.896Z,20.59
2022-10-28T11:23:02.255Z,22.11
2022-10-28T11:25:37.008Z,21.28
2022-10-28T11:28:40.972Z,22.19
2022-10-28T11:31:48.770Z,21.43
2022-10-28T11:34:39.712Z,23.81
2022-10-28T11:37:24.593Z,23.79
2022-10-28T11:40:10.225Z,23.95
2022-10-28T11:43:17.817Z,24.35
2022-10-28T11:45:53.744Z,26.01
2022-10-28T11:48:39.229Z,26.78
2022-10-28T11:51:14.052Z,26.18
2022-10-28T11:53:47.433Z,26.52
2022-10-28T11:56:23.105Z,27.16
2022-10-28T11:59:14.285Z,27.01
2022-10-28T12:02:11.747Z,27.14
2022-10-28T12:05:01.529Z,27.32
2022-10-28T12:07:58.916Z,27.12
2022-10-28T12:10:59.919Z,26.08
2022-10-28T12:13:32.022Z,26.27
2022-10-28T12:16:29.303Z,26.67
2022-10-28T12:18:58.893Z,27.36
2022-10-28T12:21:36.443Z,26.68
2022-10-28T12:24:06.581Z,26.97
2022-10-28T12:26:34.940Z,27.67
2022-10-28T12:29:06.737Z,25.47
2022-10-28T12:31:43.092Z,26.87
2022-10-28T12:34:17.708Z,26.79
2022-10-28T12:37:07.062Z,26.42
2022-10-28T12:39:38.801Z,26.55
2022-10-28T12:42:21.142Z,25.34
2022-10-28T12:44:52.828Z,24.21
2022-10-28T12:47:43.207Z,24.23
2022-10-28T12:50:20.305Z,23.50
2022-10-28T12:52:55.940Z,23.13
2022-10-28T12:55:35.059Z,23.80
2022-10-28T12:58:06.135Z,22.70
2022-10-28T13:00:38.229Z,23.23
2022-10-28T13:03:10.095Z,22.73
2022-10-28T13:05:39.855Z,22.58
2022-10-28T13:08:25.001Z,22.30
2022-10-28T13:10:58.762Z,22.41
2022-10-28T13:13:42.367Z,21.88
2022-10-28T13:16:54.920Z,22.34
2022-10-28T13:19:36.436Z,22.30
2022-10-28T13:22:23.623Z,22.20
2022-10-28T13:25:00.995Z,22.34
2022-10-28T13:27:27.595Z,22.55
2022-10-28T13:29:58.712Z,23.29
2022-10-28T13:32:38.639Z,22.33
2022-10-28T13:35:16.149Z,22.35
2022-10-28T13:37:47.363Z,21.89
2022-10-28T13:40:36.402Z,21.78
2022-10-28T13:43:02.710Z,22.58
2022-10-28T13:45:49.494Z,22.18
2022-10-28T13:48:45.210Z,21.81
2022-10-28T13:51:11.469Z,21.63
2022-10-28T13:53:40.930Z,21.73
2022-10-28T13:56:37.524Z,21.30
2022-10-28T13:59:17.514Z,21.18
2022-10-28T14:02:01.415Z,21.08
2022-10-28T14:04:37.265Z,21.07
2022-10-28T14:07:12.546Z,21.14
2022-10-28T14:09:41.283Z,21.16
2022-10-28T14:12:26.945Z,20.89
2022-10-28T14:14:58.627Z,20.91
2022-10-28T14:17:34.259Z,20.84
2022-10-28T14:20:02.626Z,20.70
2022-10-28T14:22:35.370Z,20.60
2022-10-28T14:25:02.534Z,20.38
2022-10-28T14:27:43.014Z,20.38
2022-10-28T14:30:18.947Z,20.23
2022-10-28T14:32:57.930Z,20.09
2022-10-28T14:35:31.389Z,20.25
2022-10-28T14:38:16.265Z,20.13
2022-10-28T14:41:03.825Z,20.16
2022-10-28T14:43:55.267Z,20.21
2022-10-28T14:46:44.509Z,20.25
2022-10-28T14:49:36.141Z,19.97
2022-10-28T14:52:09.819Z,19.85
2022-10-28T14:54:45.730Z,19.93
2022-10-28T14:57:12.392Z,19.84
2022-10-28T14:59:44.267Z,20.00
2022-10-28T15:02:14.709Z,19.91
2022-10-28T15:04:43.090Z,19.84
2022-10-28T15:07:18.716Z,19.72
2022-10-28T15:09:48.638Z,19.57
2022-10-28T15:12:17.483Z,19.62
2022-10-28T15:14:52.976Z,19.62
2022-10-28T15:17:20.537Z,19.44
2022-10-28T15:19:49.902Z,19.47
2022-10-28T15:22:18.304Z,19.35
2022-10-28T15:24:54.985Z,19.31
2022-10-28T15:27:22.426Z,19.15
2022-10-28T15:29:49.746Z,19.11
2022-10-28T15:32:18.990Z,18.98
2022-10-28T15:34:45.273Z,19.01
2022-10-28T15:37:17.618Z,18.89
2022-10-28T15:39:50.769Z,18.86
2022-10-28T15:42:31.109Z,18.83
2022-10-28T15:44:58.654Z,18.71
2022-10-28T15:47:32.724Z,18.69
2022-10-28T15:50:22.984Z,18.59
2022-10-28T15:53:42.110Z,18.27
2022-10-28T15:56:17.634Z,18.02
2022-10-28T15:58:59.111Z,18.10
2022-10-28T16:01:39.816Z,17.98
2022-10-28T16:04:26.269Z,17.94
2022-10-28T16:06:55.538Z,17.82
2022-10-28T16:09:35.866Z,17.72
2022-10-28T16:12:11.879Z,17.65
2022-10-28T16:14:47.080Z,17.48
2022-10-28T16:17:27.929Z,17.40
2022-10-28T16:20:02.220Z,17.16
2022-10-28T16:22:31.046Z,17.08
2022-10-28T16:24:57.563Z,16.97
2022-10-28T16:27:26.625Z,16.95
2022-10-28T16:29:53.637Z,16.89
2022-10-28T16:32:27.204Z,16.78
2022-10-28T16:34:53.515Z,16.69
2022-10-28T16:37:23.675Z,16.61
2022-10-28T16:39:50.154Z,16.54
2022-10-28T16:42:17.947Z,16.49
2022-10-28T16:44:44.589Z,16.35
2022-10-28T16:47:16.148Z,16.37
2022-10-28T16:49:43.152Z,16.40
2022-10-28T16:52:22.453Z,16.35
2022-10-28T16:54:50.469Z,16.35
2022-10-28T16:57:18.205Z,16.29
2022-10-28T16:59:44.785Z,16.27
2022-10-28T17:02:29.215Z,16.13
2022-10-28T17:04:56.578Z,16.12
2022-10-28T17:07:23.010Z,16.16
2022-10-28T17:09:49.415Z,16.16
2022-10-28T17:12:18.859Z,16.15
2022-10-28T17:14:45.233Z,16.07
2022-10-28T17:17:12.204Z,16.10
2022-10-28T17:19:39.613Z,16.09
2022-10-28T17:22:09.231Z,16.11
2022-10-28T17:24:36.759Z,16.05
2022-10-28T17:27:03.470Z,16.05
2022-10-28T17:29:29.831Z,16.03
2022-10-28T17:31:56.134Z,16.00
2022-10-28T17:34:22.467Z,16.01
2022-10-28T17:36:48.756Z,15.96
2022-10-28T17:39:18.671Z,15.97
2022-10-28T17:41:47.221Z,15.90
2022-10-28T17:44:13.499Z,15.86
2022-10-28T17:46:39.770Z,15.72
2022-10-28T17:49:08.470Z,15.87
2022-10-28T17:51:35.830Z,15.83
2022-10-28T17:54:05.984Z,15.84
2022-10-28T17:56:33.279Z,15.77
2022-10-28T17:59:01.535Z,15.70
2022-10-28T18:01:33.486Z,15.76
2022-10-28T18:04:00.351Z,15.69
2022-10-28T18:06:26.787Z,15.71
2022-10-28T18:08:53.242Z,15.47
2022-10-28T18:11:20.342Z,15.41
2022-10-28T18:13:53.166Z,15.49
2022-10-28T18:16:25.177Z,15.53
2022-10-28T18:18:51.749Z,15.54
2022-10-28T18:21:18.189Z,15.56
2022-10-28T18:23:44.499Z,15.45
2022-10-28T18:26:15.195Z,15.36
2022-10-28T18:28:42.887Z,15.41
2022-10-28T18:31:12.169Z,15.47
2022-10-28T18:33:38.956Z,15.51
2022-10-28T18:36:11.431Z,15.40
2022-10-28T18:38:38.110Z,15.38
2022-10-28T18:41:04.468Z,15.35
2022-10-28T18:43:30.800Z,15.40
2022-10-28T18:46:02.196Z,15.42
2022-10-28T18:48:30.102Z,15.36
2022-10-28T18:50:57.994Z,15.37
2022-10-28T18:53:25.246Z,15.36
2022-10-28T18:55:51.669Z,15.38
2022-10-28T18:58:18.120Z,15.37
2022-10-28T19:00:44.465Z,15.31
2022-10-28T19:03:19.123Z,15.31
2022-10-28T19:05:45.559Z,15.33
2022-10-28T19:08:12.068Z,15.32
2022-10-28T19:10:38.688Z,15.18
2022-10-28T19:13:05.129Z,15.20
2022-10-28T19:15:31.475Z,15.20
2022-10-28T19:17:57.944Z,15.26
2022-10-28T19:20:25.101Z,15.24
2022-10-28T19:22:51.813Z,15.25
2022-10-28T19:25:18.210Z,15.24
2022-10-28T19:27:44.550Z,15.18
2022-10-28T19:30:13.510Z,15.21
2022-10-28T19:32:40.151Z,15.10
2022-10-28T19:35:06.746Z,15.08
2022-10-28T19:37:33.081Z,15.07
2022-10-28T19:39:59.342Z,15.12
2022-10-28T19:42:25.698Z,15.12
2022-10-28T19:44:51.994Z,15.01
2022-10-28T19:47:18.266Z,15.01
2022-10-28T19:49:44.637Z,15.00
2022-10-28T19:52:11.001Z,14.95
2022-10-28T19:54:37.283Z,14.96
2022-10-28T19:57:03.677Z,14.92
2022-10-28T19:59:30.069Z,14.87
2022-10-28T20:01:56.489Z,14.84
2022-10-28T20:04:22.910Z,14.81
2022-10-28T20:06:49.176Z,14.80
2022-10-28T20:09:15.469Z,14.73
2022-10-28T20:11:41.801Z,14.73
2022-10-28T20:14:11.449Z,14.71
2022-10-28T20:16:39.307Z,14.55
2022-10-28T20:19:05.662Z,14.62
2022-10-28T20:21:33.717Z,14.60
2022-10-28T20:24:01.085Z,14.53
2022-10-28T20:26:29.732Z,14.39
2022-10-28T20:28:57.471Z,14.26
2022-10-28T20:31:27.494Z,14.21
2022-10-28T20:33:56.669Z,14.19
2022-10-28T20:36:28.705Z,14.18
2022-10-28T20:39:00.450Z,14.16
2022-10-28T20:41:31.882Z,14.08
2022-10-28T20:43:58.350Z,13.90
2022-10-28T20:46:25.705Z,13.85
2022-10-28T20:48:54.155Z,13.99
2022-10-28T20:51:21.866Z,14.00
2022-10-28T20:53:48.146Z,13.81
2022-10-28T20:56:16.800Z,13.83
2022-10-28T20:58:43.185Z,13.69
2022-10-28T21:01:21.862Z,13.75
2022-10-28T21:03:49.111Z,13.75
2022-10-28T21:06:16.987Z,13.75
2022-10-28T21:08:43.774Z,13.68
2022-10-28T21:11:13.383Z,13.64
2022-10-28T21:13:40.490Z,13.66
2022-10-28T21:16:09.216Z,13.57
2022-10-28T21:18:36.925Z,13.56
2022-10-28T21:21:03.741Z,13.45
2022-10-28T21:23:30.302Z,13.45
2022-10-28T21:26:01.922Z,13.32
2022-10-28T21:28:30.023Z,13.35
2022-10-28T21:31:00.381Z,13.28
2022-10-28T21:33:27.555Z,13.16
2022-10-28T21:36:01.809Z,13.20
2022-10-28T21:38:29.346Z,12.96
2022-10-28T21:41:04.258Z,13.06
2022-10-28T21:43:33.559Z,12.90
2022-10-28T21:46:00.217Z,12.94
2022-10-28T21:48:28.294Z,12.95
2022-10-28T21:50:59.585Z,12.83
2022-10-28T21:53:26.999Z,12.84
2022-10-28T21:56:02.021Z,12.85
2022-10-28T21:58:29.064Z,12.76
2022-10-28T22:01:02.305Z,12.69
2022-10-28T22:03:28.740Z,12.69
2022-10-28T22:05:55.047Z,12.65
2022-10-28T22:08:21.399Z,12.56
2022-10-28T22:10:47.748Z,12.57
2022-10-28T22:13:14.049Z,12.50
2022-10-28T22:15:40.362Z,12.52
2022-10-28T22:18:06.656Z,12.46
2022-10-28T22:20:33.836Z,12.46
2022-10-28T22:23:01.219Z,12.35
2022-10-28T22:25:27.508Z,12.33
2022-10-28T22:27:53.785Z,12.31
2022-10-28T22:30:20.093Z,12.27
2022-10-28T22:32:46.366Z,12.20
2022-10-28T22:35:12.721Z,12.24
2022-10-28T22:37:38.992Z,12.17
2022-10-28T22:40:05.746Z,12.11
2022-10-28T22:42:32.060Z,12.07
2022-10-28T22:44:58.337Z,12.07
2022-10-28T22:47:24.626Z,12.02
2022-10-28T22:49:50.986Z,11.94
2022-10-28T22:52:17.257Z,11.96
2022-10-28T22:54:43.546Z,11.96
2022-10-28T22:57:09.851Z,11.95
2022-10-28T22:59:36.145Z,11.96
2022-10-28T23:02:02.542Z,11.91
2022-10-28T23:04:28.932Z,11.91
2022-10-28T23:06:55.218Z,11.90
2022-10-28T23:09:21.520Z,11.96
2022-10-28T23:11:47.794Z,11.97
2022-10-28T23:14:14.118Z,11.89
2022-10-28T23:16:40.404Z,11.82
2022-10-28T23:19:06.718Z,11.84
2022-10-28T23:21:33.036Z,11.84
2022-10-28T23:24:00.638Z,11.74
2022-10-28T23:26:28.740Z,11.77
2022-10-28T23:28:57.599Z,11.74
2022-10-28T23:31:24.430Z,11.66
2022-10-28T23:33:53.059Z,11.73
2022-10-28T23:36:19.356Z,11.64
2022-10-28T23:38:45.776Z,11.66
2022-10-28T23:41:19.362Z,11.60
2022-10-28T23:43:46.587Z,11.64
2022-10-28T23:46:12.984Z,11.61
2022-10-28T23:48:39.385Z,11.61
2022-10-28T23:51:06.436Z,11.50
2022-10-28T23:53:32.828Z,11.60
2022-10-28T23:55:59.145Z,11.66
2022-10-28T23:58:25.655Z,11.59
